aviador You're here:

YBRM Decoded Metar

BROOME in AUSTRALIA
Report Time2017-09-25 23:30:00
UTC Time2017-09-26 00:05:46
Flight Rules vfr VFR
Wind250° at 11 kt
W.Decomp.*RWY 28: 9.3 kt HW 5.8 kt LCW
W.Rank250° ranks 5
Current wind is above 250° avg. (8.1)
Visibility9999 m
Phenomena:N/A
Clouds:Few 029 Hf
Expected CloudBase > 3,200 ft AGL from Temp-Dew spread
CeilingNone
Temp26°C (ISA +11)
Dew Point18°C (61% RH)
AAT24.8°C
QNH1014 hPa
Density Alt1,581 ft
Elevation56 ft
Report Wrong Elevation
Raw Report
YBRM 252330Z 25011KT 9999 FEW029 26/18 Q1014=

Extra information for YBRM:More info

Metar Taf Metar & Taf Last 4 Metars F.Rules Stats Wind Profile Meteogram Temp Stats Airport Information Weather charts Add Link Nearby VenuesMetar ALERT Operation Metar Decoded Social comments